sensor_id;sensor_type;location;lat;lon;timestamp;pressure;altitude;pressure_sealevel;temperature;humidity
79362;BME280;68830;47.566;19.012;2023-06-22T00:02:20;100163.91;;;20.48;99.39
79362;BME280;68830;47.566;19.012;2023-06-22T00:05:21;100181.50;;;20.50;98.95
79362;BME280;68830;47.566;19.012;2023-06-22T00:08:23;100199.09;;;20.46;98.91
79362;BME280;68830;47.566;19.012;2023-06-22T00:11:26;100197.22;;;20.40;98.06
79362;BME280;68830;47.566;19.012;2023-06-22T00:14:30;100198.06;;;20.47;96.70
79362;BME280;68830;47.566;19.012;2023-06-22T00:17:31;100194.53;;;20.47;97.08
79362;BME280;68830;47.566;19.012;2023-06-22T00:20:34;100187.69;;;20.51;96.65
79362;BME280;68830;47.566;19.012;2023-06-22T00:23:38;100167.63;;;20.47;98.35
79362;BME280;68830;47.566;19.012;2023-06-22T00:26:42;100168.66;;;20.39;98.31
79362;BME280;68830;47.566;19.012;2023-06-22T00:29:44;100168.63;;;20.33;96.55
79362;BME280;68830;47.566;19.012;2023-06-22T00:32:46;100138.44;;;20.17;96.42
79362;BME280;68830;47.566;19.012;2023-06-22T00:35:49;100157.66;;;20.21;97.38
79362;BME280;68830;47.566;19.012;2023-06-22T00:38:54;100169.25;;;20.21;98.17
79362;BME280;68830;47.566;19.012;2023-06-22T00:41:57;100168.03;;;20.24;98.03
79362;BME280;68830;47.566;19.012;2023-06-22T00:45:02;100167.78;;;20.19;99.01
79362;BME280;68830;47.566;19.012;2023-06-22T00:48:05;100169.25;;;20.15;99.30
79362;BME280;68830;47.566;19.012;2023-06-22T00:51:07;100174.63;;;20.15;98.76
79362;BME280;68830;47.566;19.012;2023-06-22T00:54:10;100170.69;;;20.11;98.98
79362;BME280;68830;47.566;19.012;2023-06-22T00:57:14;100168.81;;;19.98;99.13
79362;BME280;68830;47.566;19.012;2023-06-22T01:00:17;100164.69;;;19.95;99.15
79362;BME280;68830;47.566;19.012;2023-06-22T01:03:22;100168.41;;;20.01;99.53
79362;BME280;68830;47.566;19.012;2023-06-22T01:06:28;100169.03;;;20.03;98.71
79362;BME280;68830;47.566;19.012;2023-06-22T01:09:35;100164.25;;;20.05;99.33
79362;BME280;68830;47.566;19.012;2023-06-22T01:12:45;100118.94;;;19.69;98.77
79362;BME280;68830;47.566;19.012;2023-06-22T01:15:53;100176.06;;;19.97;99.38
79362;BME280;68830;47.566;19.012;2023-06-22T01:19:01;100176.25;;;19.96;99.00
79362;BME280;68830;47.566;19.012;2023-06-22T01:22:09;100171.31;;;19.99;99.60
79362;BME280;68830;47.566;19.012;2023-06-22T01:25:21;100174.59;;;19.95;99.52
79362;BME280;68830;47.566;19.012;2023-06-22T01:28:45;100183.28;;;19.97;100.00
79362;BME280;68830;47.566;19.012;2023-06-22T01:31:48;100165.06;;;19.86;100.00
79362;BME280;68830;47.566;19.012;2023-06-22T01:34:51;100192.41;;;19.96;99.33
79362;BME280;68830;47.566;19.012;2023-06-22T01:37:54;100203.97;;;19.96;99.97
79362;BME280;68830;47.566;19.012;2023-06-22T01:40:57;100190.53;;;19.96;99.70
79362;BME280;68830;47.566;19.012;2023-06-22T01:44:02;100174.00;;;19.93;99.65
79362;BME280;68830;47.566;19.012;2023-06-22T01:47:07;100174.84;;;20.07;99.15
79362;BME280;68830;47.566;19.012;2023-06-22T01:50:09;100187.25;;;20.08;99.52
79362;BME280;68830;47.566;19.012;2023-06-22T01:53:12;100186.84;;;20.11;99.56
79362;BME280;68830;47.566;19.012;2023-06-22T01:56:17;100186.41;;;20.14;98.74
79362;BME280;68830;47.566;19.012;2023-06-22T01:59:25;100183.94;;;20.12;98.82
79362;BME280;68830;47.566;19.012;2023-06-22T02:02:40;100177.31;;;20.08;99.26
79362;BME280;68830;47.566;19.012;2023-06-22T02:05:52;100188.91;;;20.09;98.32
79362;BME280;68830;47.566;19.012;2023-06-22T02:08:59;100174.41;;;19.96;97.44
79362;BME280;68830;47.566;19.012;2023-06-22T02:12:05;100183.06;;;19.85;97.42
79362;BME280;68830;47.566;19.012;2023-06-22T02:15:11;100206.84;;;19.88;98.42
79362;BME280;68830;47.566;19.012;2023-06-22T02:18:14;100206.81;;;19.82;98.15
79362;BME280;68830;47.566;19.012;2023-06-22T02:21:17;100204.13;;;19.82;99.15
79362;BME280;68830;47.566;19.012;2023-06-22T02:24:19;100201.88;;;19.79;99.19
79362;BME280;68830;47.566;19.012;2023-06-22T02:27:25;100194.63;;;19.79;99.71
79362;BME280;68830;47.566;19.012;2023-06-22T02:30:29;100199.56;;;19.76;99.68
79362;BME280;68830;47.566;19.012;2023-06-22T02:33:31;100197.09;;;19.81;99.09
79362;BME280;68830;47.566;19.012;2023-06-22T02:36:33;100192.94;;;19.65;98.67
79362;BME280;68830;47.566;19.012;2023-06-22T02:39:35;100209.69;;;19.74;98.70
79362;BME280;68830;47.566;19.012;2023-06-22T02:42:39;100209.94;;;19.79;99.01
79362;BME280;68830;47.566;19.012;2023-06-22T02:45:43;100195.63;;;19.65;98.49
79362;BME280;68830;47.566;19.012;2023-06-22T02:48:44;100209.06;;;19.65;98.18
79362;BME280;68830;47.566;19.012;2023-06-22T02:51:48;100202.03;;;19.64;98.39
79362;BME280;68830;47.566;19.012;2023-06-22T02:54:50;100209.06;;;19.65;98.76
79362;BME280;68830;47.566;19.012;2023-06-22T02:57:52;100210.72;;;19.66;98.84
79362;BME280;68830;47.566;19.012;2023-06-22T03:00:56;100208.19;;;19.58;98.44
79362;BME280;68830;47.566;19.012;2023-06-22T03:03:58;100207.34;;;19.57;99.27
79362;BME280;68830;47.566;19.012;2023-06-22T03:07:00;100203.78;;;19.50;98.85
79362;BME280;68830;47.566;19.012;2023-06-22T03:10:04;100213.56;;;19.58;99.04
79362;BME280;68830;47.566;19.012;2023-06-22T03:13:06;100216.25;;;19.58;98.36
79362;BME280;68830;47.566;19.012;2023-06-22T03:16:10;100197.38;;;19.51;98.29
79362;BME280;68830;47.566;19.012;2023-06-22T03:19:12;100200.06;;;19.51;98.04
79362;BME280;68830;47.566;19.012;2023-06-22T03:22:13;100210.28;;;19.69;98.13
79362;BME280;68830;47.566;19.012;2023-06-22T03:25:17;100204.50;;;19.72;99.18
79362;BME280;68830;47.566;19.012;2023-06-22T03:28:19;100192.09;;;19.71;98.78
79362;BME280;68830;47.566;19.012;2023-06-22T03:31:23;100191.91;;;19.73;99.07
79362;BME280;68830;47.566;19.012;2023-06-22T03:34:24;100188.63;;;19.84;97.89
79362;BME280;68830;47.566;19.012;2023-06-22T03:37:28;100197.16;;;19.94;97.59
79362;BME280;68830;47.566;19.012;2023-06-22T03:40:30;100191.72;;;19.81;97.67
79362;BME280;68830;47.566;19.012;2023-06-22T03:43:33;100215.72;;;19.82;98.18
79362;BME280;68830;47.566;19.012;2023-06-22T03:46:36;100223.38;;;19.79;98.68
79362;BME280;68830;47.566;19.012;2023-06-22T03:49:39;100213.44;;;19.79;98.21
79362;BME280;68830;47.566;19.012;2023-06-22T03:52:41;100210.97;;;19.84;98.97
79362;BME280;68830;47.566;19.012;2023-06-22T03:55:48;100206.63;;;19.83;98.62
79362;BME280;68830;47.566;19.012;2023-06-22T03:58:51;100219.91;;;19.91;98.17
79362;BME280;68830;47.566;19.012;2023-06-22T04:01:54;100229.81;;;19.97;98.72
79362;BME280;68830;47.566;19.012;2023-06-22T04:04:56;100230.84;;;19.96;98.39
79362;BME280;68830;47.566;19.012;2023-06-22T04:07:59;100229.63;;;19.99;97.35
79362;BME280;68830;47.566;19.012;2023-06-22T04:11:01;100214.09;;;20.01;96.30
79362;BME280;68830;47.566;19.012;2023-06-22T04:14:03;100220.97;;;20.10;96.08
79362;BME280;68830;47.566;19.012;2023-06-22T04:17:06;100222.22;;;20.08;97.08
79362;BME280;68830;47.566;19.012;2023-06-22T04:20:09;100224.06;;;20.07;97.90
79362;BME280;68830;47.566;19.012;2023-06-22T04:23:10;100237.34;;;20.22;98.13
79362;BME280;68830;47.566;19.012;2023-06-22T04:26:13;100235.06;;;20.32;96.42
79362;BME280;68830;47.566;19.012;2023-06-22T04:29:16;100227.63;;;20.41;98.01
79362;BME280;68830;47.566;19.012;2023-06-22T04:32:19;100213.78;;;20.44;96.75
79362;BME280;68830;47.566;19.012;2023-06-22T04:35:21;100227.66;;;20.74;96.31
79362;BME280;68830;47.566;19.012;2023-06-22T04:38:24;100234.50;;;20.76;93.00
79362;BME280;68830;47.566;19.012;2023-06-22T04:41:28;100236.78;;;20.86;94.80
79362;BME280;68830;47.566;19.012;2023-06-22T04:44:30;100229.13;;;20.83;95.31
79362;BME280;68830;47.566;19.012;2023-06-22T04:47:33;100227.25;;;20.77;95.38
79362;BME280;68830;47.566;19.012;2023-06-22T04:50:35;100243.59;;;21.02;93.50
79362;BME280;68830;47.566;19.012;2023-06-22T04:53:39;100242.97;;;20.93;94.94
79362;BME280;68830;47.566;19.012;2023-06-22T04:56:43;100230.34;;;20.87;93.55
79362;BME280;68830;47.566;19.012;2023-06-22T04:59:48;100246.28;;;21.02;95.75
79362;BME280;68830;47.566;19.012;2023-06-22T05:02:51;100242.72;;;21.08;94.16
79362;BME280;68830;47.566;19.012;2023-06-22T05:05:59;100212.28;;;21.07;93.42
79362;BME280;68830;47.566;19.012;2023-06-22T05:09:01;100224.50;;;21.16;93.11
79362;BME280;68830;47.566;19.012;2023-06-22T05:12:06;100230.28;;;21.33;90.46
79362;BME280;68830;47.566;19.012;2023-06-22T05:15:12;100238.94;;;21.42;89.56
79362;BME280;68830;47.566;19.012;2023-06-22T05:18:15;100237.50;;;21.39;90.86
79362;BME280;68830;47.566;19.012;2023-06-22T05:21:18;100246.19;;;21.48;91.71
79362;BME280;68830;47.566;19.012;2023-06-22T05:24:20;100248.28;;;21.46;94.19
79362;BME280;68830;47.566;19.012;2023-06-22T05:27:22;100256.50;;;21.58;94.21
79362;BME280;68830;47.566;19.012;2023-06-22T05:30:25;100258.38;;;21.64;93.67
79362;BME280;68830;47.566;19.012;2023-06-22T05:33:30;100253.94;;;21.83;91.26
79362;BME280;68830;47.566;19.012;2023-06-22T05:36:32;100261.09;;;22.09;91.79
79362;BME280;68830;47.566;19.012;2023-06-22T05:39:34;100260.00;;;22.16;89.39
79362;BME280;68830;47.566;19.012;2023-06-22T05:42:36;100285.84;;;22.37;88.30
79362;BME280;68830;47.566;19.012;2023-06-22T05:45:38;100285.13;;;22.48;87.88
79362;BME280;68830;47.566;19.012;2023-06-22T05:48:41;100286.31;;;22.59;88.49
79362;BME280;68830;47.566;19.012;2023-06-22T05:51:44;100284.81;;;22.63;88.14
79362;BME280;68830;47.566;19.012;2023-06-22T05:54:46;100288.19;;;22.58;85.73
79362;BME280;68830;47.566;19.012;2023-06-22T05:57:48;100279.78;;;22.66;86.95
79362;BME280;68830;47.566;19.012;2023-06-22T06:00:50;100281.25;;;22.69;86.15
79362;BME280;68830;47.566;19.012;2023-06-22T06:03:53;100209.00;;;22.40;87.76
79362;BME280;68830;47.566;19.012;2023-06-22T06:06:55;100224.97;;;22.66;87.48
79362;BME280;68830;47.566;19.012;2023-06-22T06:09:57;100215.94;;;22.79;86.84
79362;BME280;68830;47.566;19.012;2023-06-22T06:12:59;100225.50;;;22.50;86.82
79362;BME280;68830;47.566;19.012;2023-06-22T06:16:04;100243.81;;;22.73;84.94
79362;BME280;68830;47.566;19.012;2023-06-22T06:19:08;100226.00;;;23.33;80.80
79362;BME280;68830;47.566;19.012;2023-06-22T06:22:10;100226.59;;;23.72;78.38
79362;BME280;68830;47.566;19.012;2023-06-22T06:25:12;100220.88;;;23.80;78.22
79362;BME280;68830;47.566;19.012;2023-06-22T06:28:18;100223.19;;;23.95;81.35
79362;BME280;68830;47.566;19.012;2023-06-22T06:31:20;100249.31;;;24.01;78.23
79362;BME280;68830;47.566;19.012;2023-06-22T06:34:24;100277.13;;;24.08;77.63
79362;BME280;68830;47.566;19.012;2023-06-22T06:37:26;100285.78;;;24.28;76.55
79362;BME280;68830;47.566;19.012;2023-06-22T06:40:28;100274.31;;;24.44;76.35
79362;BME280;68830;47.566;19.012;2023-06-22T06:43:31;100272.75;;;24.79;76.40
79362;BME280;68830;47.566;19.012;2023-06-22T06:46:33;100259.34;;;24.84;73.91
79362;BME280;68830;47.566;19.012;2023-06-22T06:49:36;100279.72;;;24.98;75.10
79362;BME280;68830;47.566;19.012;2023-06-22T06:52:38;100279.63;;;25.05;74.88
79362;BME280;68830;47.566;19.012;2023-06-22T06:55:40;100282.53;;;24.91;73.63
79362;BME280;68830;47.566;19.012;2023-06-22T06:58:42;100275.13;;;24.87;76.33
79362;BME280;68830;47.566;19.012;2023-06-22T07:01:46;100277.75;;;25.05;78.05
79362;BME280;68830;47.566;19.012;2023-06-22T07:04:51;100267.78;;;24.64;74.11
79362;BME280;68830;47.566;19.012;2023-06-22T07:07:54;100252.63;;;24.86;75.66
79362;BME280;68830;47.566;19.012;2023-06-22T07:10:55;100255.09;;;25.11;75.01
79362;BME280;68830;47.566;19.012;2023-06-22T07:13:58;100246.97;;;24.99;73.23
79362;BME280;68830;47.566;19.012;2023-06-22T07:17:00;100250.81;;;25.50;70.85
79362;BME280;68830;47.566;19.012;2023-06-22T07:20:04;100250.47;;;25.99;69.41
79362;BME280;68830;47.566;19.012;2023-06-22T07:23:14;100250.50;;;25.87;66.45
79362;BME280;68830;47.566;19.012;2023-06-22T07:26:15;100247.41;;;26.24;69.85
79362;BME280;68830;47.566;19.012;2023-06-22T07:29:19;100246.06;;;26.71;64.97
79362;BME280;68830;47.566;19.012;2023-06-22T07:32:22;100249.53;;;26.67;64.31
79362;BME280;68830;47.566;19.012;2023-06-22T07:35:25;100243.09;;;26.56;66.40
79362;BME280;68830;47.566;19.012;2023-06-22T07:38:28;100237.69;;;26.28;62.29
79362;BME280;68830;47.566;19.012;2023-06-22T07:41:30;100235.34;;;26.48;62.18
79362;BME280;68830;47.566;19.012;2023-06-22T07:44:32;100244.56;;;26.47;61.58
79362;BME280;68830;47.566;19.012;2023-06-22T07:47:34;100243.94;;;26.73;59.17
79362;BME280;68830;47.566;19.012;2023-06-22T07:50:38;100242.22;;;26.84;59.96
79362;BME280;68830;47.566;19.012;2023-06-22T07:53:41;100238.47;;;26.90;59.97
79362;BME280;68830;47.566;19.012;2023-06-22T07:56:43;100239.06;;;26.42;56.94
79362;BME280;68830;47.566;19.012;2023-06-22T07:59:46;100219.88;;;26.48;58.44
79362;BME280;68830;47.566;19.012;2023-06-22T08:02:48;100236.44;;;26.47;65.28
79362;BME280;68830;47.566;19.012;2023-06-22T08:05:51;100238.09;;;26.82;64.67
79362;BME280;68830;47.566;19.012;2023-06-22T08:08:54;100230.06;;;27.08;58.09
79362;BME280;68830;47.566;19.012;2023-06-22T08:11:59;100223.41;;;26.99;58.74
79362;BME280;68830;47.566;19.012;2023-06-22T08:15:01;100225.09;;;27.22;57.69
79362;BME280;68830;47.566;19.012;2023-06-22T08:18:03;100220.63;;;27.33;58.83
79362;BME280;68830;47.566;19.012;2023-06-22T08:21:07;100212.97;;;27.30;55.58
79362;BME280;68830;47.566;19.012;2023-06-22T08:24:09;100221.44;;;27.33;59.54
79362;BME280;68830;47.566;19.012;2023-06-22T08:27:11;100216.13;;;27.22;56.13
79362;BME280;68830;47.566;19.012;2023-06-22T08:30:23;100199.00;;;27.43;54.88
79362;BME280;68830;47.566;19.012;2023-06-22T08:33:25;100220.50;;;27.88;55.67
79362;BME280;68830;47.566;19.012;2023-06-22T08:36:32;100217.72;;;27.83;56.43
79362;BME280;68830;47.566;19.012;2023-06-22T08:39:39;100215.78;;;27.79;51.90
79362;BME280;68830;47.566;19.012;2023-06-22T08:42:41;100222.59;;;27.59;54.61
79362;BME280;68830;47.566;19.012;2023-06-22T08:45:43;100219.53;;;27.99;62.52
79362;BME280;68830;47.566;19.012;2023-06-22T08:48:46;100213.19;;;28.48;54.97
79362;BME280;68830;47.566;19.012;2023-06-22T08:51:49;100203.66;;;28.18;53.17
79362;BME280;68830;47.566;19.012;2023-06-22T08:54:55;100210.13;;;28.39;51.85
79362;BME280;68830;47.566;19.012;2023-06-22T08:57:57;100207.03;;;28.63;52.73
79362;BME280;68830;47.566;19.012;2023-06-22T09:00:59;100198.50;;;28.22;57.68
79362;BME280;68830;47.566;19.012;2023-06-22T09:04:03;100183.06;;;29.02;55.94
79362;BME280;68830;47.566;19.012;2023-06-22T09:07:08;100193.44;;;29.10;51.89
79362;BME280;68830;47.566;19.012;2023-06-22T09:10:10;100191.59;;;29.21;51.47
79362;BME280;68830;47.566;19.012;2023-06-22T09:13:12;100189.66;;;28.69;56.75
79362;BME280;68830;47.566;19.012;2023-06-22T09:16:14;100181.75;;;28.72;54.23
79362;BME280;68830;47.566;19.012;2023-06-22T09:19:16;100176.88;;;28.74;55.18
79362;BME280;68830;47.566;19.012;2023-06-22T09:22:20;100177.13;;;29.15;51.20
79362;BME280;68830;47.566;19.012;2023-06-22T09:25:22;100169.59;;;28.48;52.94
79362;BME280;68830;47.566;19.012;2023-06-22T09:28:24;100182.34;;;28.79;52.28
79362;BME280;68830;47.566;19.012;2023-06-22T09:31:27;100159.41;;;29.12;53.16
79362;BME280;68830;47.566;19.012;2023-06-22T09:34:29;100164.78;;;29.60;51.91
79362;BME280;68830;47.566;19.012;2023-06-22T09:37:35;100170.66;;;29.26;50.23
79362;BME280;68830;47.566;19.012;2023-06-22T09:40:37;100172.03;;;29.39;50.80
79362;BME280;68830;47.566;19.012;2023-06-22T09:43:41;100151.34;;;29.43;48.49
79362;BME280;68830;47.566;19.012;2023-06-22T09:46:43;100168.25;;;29.45;54.98
79362;BME280;68830;47.566;19.012;2023-06-22T09:49:45;100163.88;;;29.44;58.13
79362;BME280;68830;47.566;19.012;2023-06-22T09:52:50;100159.84;;;29.47;52.44
79362;BME280;68830;47.566;19.012;2023-06-22T09:55:56;100168.09;;;29.77;51.94
79362;BME280;68830;47.566;19.012;2023-06-22T09:58:58;100159.94;;;29.97;52.40
79362;BME280;68830;47.566;19.012;2023-06-22T10:02:18;100167.06;;;30.09;50.32
79362;BME280;68830;47.566;19.012;2023-06-22T10:05:20;100171.13;;;29.91;52.35
79362;BME280;68830;47.566;19.012;2023-06-22T10:08:24;100167.34;;;30.07;49.92
79362;BME280;68830;47.566;19.012;2023-06-22T10:11:26;100161.78;;;29.56;50.20
79362;BME280;68830;47.566;19.012;2023-06-22T10:14:31;100153.31;;;29.58;49.64
79362;BME280;68830;47.566;19.012;2023-06-22T10:17:33;100162.72;;;30.23;51.06
79362;BME280;68830;47.566;19.012;2023-06-22T10:20:36;100163.78;;;30.47;51.58
79362;BME280;68830;47.566;19.012;2023-06-22T10:23:40;100147.41;;;30.68;49.37
79362;BME280;68830;47.566;19.012;2023-06-22T10:26:42;100158.84;;;30.85;47.56
79362;BME280;68830;47.566;19.012;2023-06-22T10:29:44;100136.97;;;30.75;47.70
79362;BME280;68830;47.566;19.012;2023-06-22T10:32:46;100158.84;;;30.85;52.65
79362;BME280;68830;47.566;19.012;2023-06-22T10:35:48;100153.94;;;30.56;49.93
79362;BME280;68830;47.566;19.012;2023-06-22T10:38:52;100167.34;;;30.48;50.34
79362;BME280;68830;47.566;19.012;2023-06-22T10:41:55;100156.41;;;30.68;48.75
79362;BME280;68830;47.566;19.012;2023-06-22T10:44:57;100143.56;;;30.79;47.51
79362;BME280;68830;47.566;19.012;2023-06-22T10:47:59;100155.31;;;30.74;46.72
79362;BME280;68830;47.566;19.012;2023-06-22T10:51:01;100141.38;;;30.30;53.28
79362;BME280;68830;47.566;19.012;2023-06-22T10:54:04;100139.47;;;30.30;48.00
79362;BME280;68830;47.566;19.012;2023-06-22T10:57:07;100145.25;;;30.19;48.11
79362;BME280;68830;47.566;19.012;2023-06-22T11:00:10;100144.63;;;29.91;47.31
79362;BME280;68830;47.566;19.012;2023-06-22T11:03:13;100148.72;;;29.79;47.50
79362;BME280;68830;47.566;19.012;2023-06-22T11:06:16;100152.03;;;30.72;47.69
79362;BME280;68830;47.566;19.012;2023-06-22T11:09:19;100136.41;;;30.88;48.29
79362;BME280;68830;47.566;19.012;2023-06-22T11:12:29;100135.31;;;30.94;45.55
79362;BME280;68830;47.566;19.012;2023-06-22T11:15:31;100142.59;;;31.09;48.61
79362;BME280;68830;47.566;19.012;2023-06-22T11:18:34;100124.91;;;30.96;51.44
79362;BME280;68830;47.566;19.012;2023-06-22T11:21:36;100127.41;;;30.72;49.98
79362;BME280;68830;47.566;19.012;2023-06-22T11:24:40;100124.97;;;30.71;47.35
79362;BME280;68830;47.566;19.012;2023-06-22T11:27:42;100119.78;;;30.54;49.73
79362;BME280;68830;47.566;19.012;2023-06-22T11:30:44;100123.91;;;30.41;49.23
79362;BME280;68830;47.566;19.012;2023-06-22T11:33:46;100118.38;;;30.61;53.18
79362;BME280;68830;47.566;19.012;2023-06-22T11:36:49;100124.72;;;30.42;48.76
79362;BME280;68830;47.566;19.012;2023-06-22T11:39:52;100131.25;;;30.56;55.70
79362;BME280;68830;47.566;19.012;2023-06-22T11:43:07;100123.06;;;30.30;47.58
79362;BME280;68830;47.566;19.012;2023-06-22T11:46:09;100104.38;;;30.99;47.50
79362;BME280;68830;47.566;19.012;2023-06-22T11:49:12;100105.22;;;30.94;48.71
79362;BME280;68830;47.566;19.012;2023-06-22T11:52:14;100110.38;;;31.60;45.21
79362;BME280;68830;47.566;19.012;2023-06-22T11:55:17;100109.78;;;31.19;52.08
79362;BME280;68830;47.566;19.012;2023-06-22T11:58:20;100100.19;;;31.16;46.74
79362;BME280;68830;47.566;19.012;2023-06-22T12:01:22;100119.16;;;31.52;45.33
79362;BME280;68830;47.566;19.012;2023-06-22T12:04:25;100112.03;;;30.97;49.42
79362;BME280;68830;47.566;19.012;2023-06-22T12:07:27;100098.22;;;31.76;46.39
79362;BME280;68830;47.566;19.012;2023-06-22T12:10:32;100106.53;;;32.00;46.03
79362;BME280;68830;47.566;19.012;2023-06-22T12:13:34;100095.03;;;31.98;45.60
79362;BME280;68830;47.566;19.012;2023-06-22T12:16:37;100102.16;;;31.99;44.51
79362;BME280;68830;47.566;19.012;2023-06-22T12:19:39;100094.25;;;30.99;48.71
79362;BME280;68830;47.566;19.012;2023-06-22T12:22:41;100095.03;;;31.98;45.08
79362;BME280;68830;47.566;19.012;2023-06-22T12:25:46;100082.97;;;31.99;43.18
79362;BME280;68830;47.566;19.012;2023-06-22T12:28:48;100077.19;;;32.06;45.07
79362;BME280;68830;47.566;19.012;2023-06-22T12:31:50;100077.75;;;31.19;45.88
79362;BME280;68830;47.566;19.012;2023-06-22T12:34:52;100068.53;;;31.00;45.50
79362;BME280;68830;47.566;19.012;2023-06-22T12:37:54;100071.06;;;30.81;44.63
79362;BME280;68830;47.566;19.012;2023-06-22T12:40:57;100075.53;;;31.27;47.48
79362;BME280;68830;47.566;19.012;2023-06-22T12:43:59;100064.78;;;31.35;44.78
79362;BME280;68830;47.566;19.012;2023-06-22T12:47:01;100060.81;;;31.96;45.52
79362;BME280;68830;47.566;19.012;2023-06-22T12:50:05;100059.31;;;31.40;44.26
79362;BME280;68830;47.566;19.012;2023-06-22T12:53:07;100071.72;;;31.22;46.89
79362;BME280;68830;47.566;19.012;2023-06-22T12:56:11;100071.34;;;31.39;45.36
79362;BME280;68830;47.566;19.012;2023-06-22T12:59:13;100056.63;;;31.74;42.00
79362;BME280;68830;47.566;19.012;2023-06-22T13:02:15;100058.94;;;31.52;42.84
79362;BME280;68830;47.566;19.012;2023-06-22T13:05:18;100062.91;;;31.75;47.08
79362;BME280;68830;47.566;19.012;2023-06-22T13:08:20;100049.81;;;32.30;43.07
79362;BME280;68830;47.566;19.012;2023-06-22T13:11:23;100041.03;;;32.57;43.91
79362;BME280;68830;47.566;19.012;2023-06-22T13:14:25;100042.78;;;32.72;44.33
79362;BME280;68830;47.566;19.012;2023-06-22T13:17:28;100026.56;;;32.51;41.64
79362;BME280;68830;47.566;19.012;2023-06-22T13:20:30;100023.84;;;32.22;41.82
79362;BME280;68830;47.566;19.012;2023-06-22T13:23:33;100028.44;;;32.56;43.64
79362;BME280;68830;47.566;19.012;2023-06-22T13:26:37;100016.25;;;32.43;42.68
79362;BME280;68830;47.566;19.012;2023-06-22T13:29:39;100029.94;;;32.67;42.52
79362;BME280;68830;47.566;19.012;2023-06-22T13:32:41;100024.88;;;32.55;42.10
79362;BME280;68830;47.566;19.012;2023-06-22T13:35:45;100030.81;;;31.80;42.43
79362;BME280;68830;47.566;19.012;2023-06-22T13:38:48;100034.00;;;31.53;46.94
79362;BME280;68830;47.566;19.012;2023-06-22T13:41:51;100025.78;;;31.93;44.85
79362;BME280;68830;47.566;19.012;2023-06-22T13:44:54;100019.66;;;32.01;44.63
79362;BME280;68830;47.566;19.012;2023-06-22T13:47:56;100010.97;;;32.23;43.70
79362;BME280;68830;47.566;19.012;2023-06-22T13:50:59;100017.00;;;32.49;44.04
79362;BME280;68830;47.566;19.012;2023-06-22T13:54:01;100021.53;;;31.76;43.61
79362;BME280;68830;47.566;19.012;2023-06-22T13:57:05;100001.50;;;32.10;42.67
79362;BME280;68830;47.566;19.012;2023-06-22T14:00:08;100015.28;;;31.71;49.20
79362;BME280;68830;47.566;19.012;2023-06-22T14:03:10;99999.47;;;31.23;47.80
79362;BME280;68830;47.566;19.012;2023-06-22T14:06:12;100007.34;;;32.03;41.80
79362;BME280;68830;47.566;19.012;2023-06-22T14:09:14;100000.69;;;31.80;45.65
79362;BME280;68830;47.566;19.012;2023-06-22T14:12:18;100002.84;;;32.13;46.53
79362;BME280;68830;47.566;19.012;2023-06-22T14:15:20;99998.44;;;31.09;52.69
79362;BME280;68830;47.566;19.012;2023-06-22T14:18:22;99999.63;;;31.37;48.86
79362;BME280;68830;47.566;19.012;2023-06-22T14:21:25;99985.03;;;32.39;43.80
79362;BME280;68830;47.566;19.012;2023-06-22T14:24:27;99975.75;;;32.59;41.84
79362;BME280;68830;47.566;19.012;2023-06-22T14:27:33;99972.66;;;32.65;45.01
79362;BME280;68830;47.566;19.012;2023-06-22T14:30:35;99951.50;;;32.47;41.81
79362;BME280;68830;47.566;19.012;2023-06-22T14:33:38;99975.41;;;31.89;44.27
79362;BME280;68830;47.566;19.012;2023-06-22T14:36:40;99965.41;;;32.03;43.80
79362;BME280;68830;47.566;19.012;2023-06-22T14:39:42;99960.47;;;32.05;44.03
79362;BME280;68830;47.566;19.012;2023-06-22T14:42:45;99968.50;;;32.20;45.77
79362;BME280;68830;47.566;19.012;2023-06-22T14:45:48;99969.50;;;32.05;44.84
79362;BME280;68830;47.566;19.012;2023-06-22T14:48:51;99969.09;;;31.59;43.91
79362;BME280;68830;47.566;19.012;2023-06-22T14:51:54;99967.59;;;30.99;48.95
79362;BME280;68830;47.566;19.012;2023-06-22T14:54:56;99968.34;;;31.48;43.51
79362;BME280;68830;47.566;19.012;2023-06-22T14:57:59;99955.44;;;31.88;44.54
79362;BME280;68830;47.566;19.012;2023-06-22T15:01:02;99972.38;;;31.17;50.16
79362;BME280;68830;47.566;19.012;2023-06-22T15:04:05;99965.25;;;31.26;47.69
79362;BME280;68830;47.566;19.012;2023-06-22T15:07:07;99955.44;;;31.88;45.16
79362;BME280;68830;47.566;19.012;2023-06-22T15:10:09;99959.38;;;31.43;46.59
79362;BME280;68830;47.566;19.012;2023-06-22T15:13:13;99950.19;;;31.23;47.95
79362;BME280;68830;47.566;19.012;2023-06-22T15:16:15;99942.72;;;30.95;50.68
79362;BME280;68830;47.566;19.012;2023-06-22T15:19:18;99942.03;;;31.18;49.15
79362;BME280;68830;47.566;19.012;2023-06-22T15:22:20;99948.44;;;30.99;51.13
79362;BME280;68830;47.566;19.012;2023-06-22T15:25:21;99936.75;;;30.88;48.89
79362;BME280;68830;47.566;19.012;2023-06-22T15:28:25;99938.81;;;31.06;45.78
79362;BME280;68830;47.566;19.012;2023-06-22T15:31:27;99943.84;;;30.89;50.01
79362;BME280;68830;47.566;19.012;2023-06-22T15:34:29;99952.94;;;30.74;48.34
79362;BME280;68830;47.566;19.012;2023-06-22T15:37:31;99944.16;;;29.97;57.61
79362;BME280;68830;47.566;19.012;2023-06-22T15:40:34;99937.63;;;29.93;55.13
79362;BME280;68830;47.566;19.012;2023-06-22T15:43:37;99931.78;;;30.30;52.71
79362;BME280;68830;47.566;19.012;2023-06-22T15:46:39;99942.50;;;30.17;56.53